Time,TemperatureF,DewpointF,PressureIn,WindDirection,WindDirectionDegrees,WindSpeedMPH,WindSpeedGustMPH,Humidity,HourlyPrecipIn,Conditions,Clouds,dailyrainin,SoftwareType,DateUTC
2013-03-05 00:06:00,40.4,31.0,29.92,SSW,199,0.0,2.0,70,0.00,,,0.00,weatherlink.com 1.10,2013-03-05 07:06:00,
2013-03-05 00:21:00,39.8,31.0,29.93,South,184,0.0,2.0,71,0.00,,,0.00,weatherlink.com 1.10,2013-03-05 07:21:00,
2013-03-05 00:36:00,39.3,31.0,29.94,South,183,0.0,0.0,72,0.00,,,0.00,weatherlink.com 1.10,2013-03-05 07:36:00,
2013-03-05 00:51:00,38.8,31.0,29.94,North,5,0.0,2.0,74,0.00,,,0.00,weatherlink.com 1.10,2013-03-05 07:51:00,
2013-03-05 01:06:00,38.3,31.0,29.94,WNW,292,0.0,1.0,75,0.00,,,0.00,weatherlink.com 1.10,2013-03-05 08:06:00,
2013-03-05 01:21:00,37.5,31.0,29.94,WNW,292,0.0,2.0,77,0.00,,,0.00,weatherlink.com 1.10,2013-03-05 08:21:00,
2013-03-05 01:36:00,37.3,31.0,29.95,WNW,292,0.0,2.0,77,0.00,,,0.00,weatherlink.com 1.10,2013-03-05 08:36:00,
2013-03-05 01:51:00,36.8,31.0,29.95,WNW,292,0.0,2.0,78,0.00,,,0.00,weatherlink.com 1.10,2013-03-05 08:51:00,
2013-03-05 02:06:00,36.0,30.0,29.95,WNW,292,0.0,0.0,79,0.00,,,0.00,weatherlink.com 1.10,2013-03-05 09:06:00,
2013-03-05 02:21:00,35.2,30.0,29.95,NNW,339,0.0,1.0,81,0.00,,,0.00,weatherlink.com 1.10,2013-03-05 09:21:00,
2013-03-05 02:36:00,34.9,30.0,29.96,NNE,21,0.0,1.0,81,0.00,,,0.00,weatherlink.com 1.10,2013-03-05 09:36:00,
2013-03-05 02:51:00,34.4,30.0,29.95,NNE,21,0.0,1.0,83,0.00,,,0.00,weatherlink.com 1.10,2013-03-05 09:51:00,
2013-03-05 03:06:00,34.0,30.0,29.95,NNE,21,0.0,1.0,84,0.00,,,0.00,weatherlink.com 1.10,2013-03-05 10:06:00,
2013-03-05 03:21:00,33.7,29.0,29.95,NNE,21,0.0,1.0,84,0.00,,,0.00,weatherlink.com 1.10,2013-03-05 10:21:00,
2013-03-05 03:36:00,33.4,29.0,29.95,NNE,21,0.0,0.0,84,0.00,,,0.00,weatherlink.com 1.10,2013-03-05 10:36:00,
2013-03-05 03:51:00,33.0,29.0,29.96,NNE,21,0.0,0.0,85,0.00,,,0.00,weatherlink.com 1.10,2013-03-05 10:51:00,
2013-03-05 04:06:00,32.9,29.0,29.96,NNE,21,0.0,0.0,85,0.00,,,0.00,weatherlink.com 1.10,2013-03-05 11:06:00,
2013-03-05 04:22:00,32.3,29.0,29.96,NNE,21,0.0,0.0,86,0.00,,,0.00,weatherlink.com 1.10,2013-03-05 11:22:00,
2013-03-05 04:37:00,32.1,29.0,29.96,NNE,21,0.0,0.0,87,0.00,,,0.00,weatherlink.com 1.10,2013-03-05 11:37:00,
2013-03-05 04:52:00,31.7,28.0,29.97,NNE,21,0.0,0.0,87,0.00,,,0.00,weatherlink.com 1.10,2013-03-05 11:52:00,
2013-03-05 05:07:00,31.3,28.0,29.98,NNE,21,0.0,1.0,87,0.00,,,0.00,weatherlink.com 1.10,2013-03-05 12:07:00,
2013-03-05 05:22:00,31.2,28.0,29.98,NNE,21,0.0,0.0,88,0.00,,,0.00,weatherlink.com 1.10,2013-03-05 12:22:00,
2013-03-05 05:37:00,30.8,28.0,29.99,NNE,21,0.0,1.0,89,0.00,,,0.00,weatherlink.com 1.10,2013-03-05 12:37:00,
2013-03-05 05:52:00,30.8,28.0,29.99,NNE,21,0.0,0.0,89,0.00,,,0.00,weatherlink.com 1.10,2013-03-05 12:52:00,
2013-03-05 06:07:00,30.8,28.0,30.00,NNE,20,0.0,1.0,89,0.00,,,0.00,weatherlink.com 1.10,2013-03-05 13:07:00,
2013-03-05 06:22:00,30.4,28.0,30.00,NNE,20,0.0,2.0,90,0.00,,,0.00,weatherlink.com 1.10,2013-03-05 13:22:00,
2013-03-05 06:37:00,30.5,28.0,30.00,NNE,20,0.0,0.0,89,0.00,,,0.00,weatherlink.com 1.10,2013-03-05 13:37:00,
2013-03-05 06:52:00,30.1,27.0,30.01,NNE,20,0.0,1.0,89,0.00,,,0.00,weatherlink.com 1.10,2013-03-05 13:52:00,
2013-03-05 07:07:00,29.9,27.0,30.00,NNE,20,0.0,0.0,90,0.00,,,0.00,weatherlink.com 1.10,2013-03-05 14:07:00,
2013-03-05 07:22:00,29.8,27.0,30.01,NNE,20,0.0,0.0,90,0.00,,,0.00,weatherlink.com 1.10,2013-03-05 14:22:00,
2013-03-05 07:37:00,30.7,28.0,30.01,NNE,20,0.0,1.0,91,0.00,,,0.00,weatherlink.com 1.10,2013-03-05 14:37:00,
2013-03-05 07:52:00,32.8,30.0,30.02,NE,55,0.0,1.0,89,0.00,,,0.00,weatherlink.com 1.10,2013-03-05 14:52:00,
2013-03-05 08:07:00,35.2,31.0,30.03,NE,55,0.0,1.0,86,0.00,,,0.00,weatherlink.com 1.10,2013-03-05 15:07:00,
2013-03-05 08:22:00,38.0,32.0,30.03,NE,55,0.0,1.0,80,0.00,,,0.00,weatherlink.com 1.10,2013-03-05 15:22:00,
2013-03-05 08:37:00,40.9,33.0,30.04,NE,55,1.0,1.0,73,0.00,,,0.00,weatherlink.com 1.10,2013-03-05 15:37:00,
2013-03-05 08:52:00,44.2,35.0,30.04,East,90,1.0,2.0,70,0.00,,,0.00,weatherlink.com 1.10,2013-03-05 15:52:00,
2013-03-05 09:07:00,48.0,34.0,30.03,East,90,0.0,1.0,59,0.00,,,0.00,weatherlink.com 1.10,2013-03-05 16:07:00,
2013-03-05 09:22:00,51.7,33.0,30.03,West,263,4.0,5.0,49,0.00,,,0.00,weatherlink.com 1.10,2013-03-05 16:22:00,
2013-03-05 09:37:00,53.6,33.0,30.03,WNW,292,2.0,7.0,46,0.00,,,0.00,weatherlink.com 1.10,2013-03-05 16:37:00,
2013-03-05 09:52:00,54.7,32.0,30.03,North,355,1.0,5.0,42,0.00,,,0.00,weatherlink.com 1.10,2013-03-05 16:52:00,
2013-03-05 10:08:00,56.8,33.0,30.02,NNW,331,2.0,5.0,41,0.00,,,0.00,weatherlink.com 1.10,2013-03-05 17:08:00,
2013-03-05 10:23:00,58.1,33.0,30.01,NNW,336,1.0,5.0,39,0.00,,,0.00,weatherlink.com 1.10,2013-03-05 17:23:00,
2013-03-05 10:38:00,60.0,33.0,30.01,North,10,2.0,4.0,36,0.00,,,0.00,weatherlink.com 1.10,2013-03-05 17:38:00,
2013-03-05 10:53:00,60.8,35.0,29.99,SSW,202,0.0,5.0,39,0.00,,,0.00,weatherlink.com 1.10,2013-03-05 17:53:00,
2013-03-05 11:08:00,63.0,35.0,30.00,East,101,5.0,5.0,35,0.00,,,0.00,weatherlink.com 1.10,2013-03-05 18:08:00,
2013-03-05 11:23:00,64.3,32.0,29.99,SE,144,3.0,3.0,30,0.00,,,0.00,weatherlink.com 1.10,2013-03-05 18:23:00,
2013-03-05 11:38:00,65.1,30.0,29.99,ENE,71,2.0,3.0,27,0.00,,,0.00,weatherlink.com 1.10,2013-03-05 18:38:00,
2013-03-05 11:53:00,66.7,30.0,29.98,West,279,0.0,5.0,25,0.00,,,0.00,weatherlink.com 1.10,2013-03-05 18:53:00,
2013-03-05 12:08:00,68.1,32.0,29.98,SW,215,2.0,4.0,26,0.00,,,0.00,weatherlink.com 1.10,2013-03-05 19:08:00,
2013-03-05 12:23:00,69.0,32.0,29.96,SE,144,0.0,5.0,25,0.00,,,0.00,weatherlink.com 1.10,2013-03-05 19:23:00,
2013-03-05 12:38:00,68.9,28.0,29.95,East,93,1.0,5.0,22,0.00,,,0.00,weatherlink.com 1.10,2013-03-05 19:38:00,
2013-03-05 12:53:00,68.4,30.0,29.94,East,92,5.0,8.0,24,0.00,,,0.00,weatherlink.com 1.10,2013-03-05 19:53:00,
2013-03-05 13:08:00,70.1,28.0,29.93,ENE,76,4.0,7.0,21,0.00,,,0.00,weatherlink.com 1.10,2013-03-05 20:08:00,
2013-03-05 13:23:00,69.7,27.0,29.92,East,81,2.0,9.0,20,0.00,,,0.00,weatherlink.com 1.10,2013-03-05 20:23:00,
2013-03-05 13:38:00,71.0,28.0,29.91,ESE,112,2.0,9.0,20,0.00,,,0.00,weatherlink.com 1.10,2013-03-05 20:38:00,
2013-03-05 13:53:00,72.4,26.0,29.90,SE,128,5.0,10.0,18,0.00,,,0.00,weatherlink.com 1.10,2013-03-05 20:53:00,
2013-03-05 14:08:00,73.3,24.0,29.88,South,173,2.0,9.0,16,0.00,,,0.00,weatherlink.com 1.10,2013-03-05 21:08:00,
2013-03-05 14:23:00,73.1,26.0,29.87,SSE,151,4.0,11.0,17,0.00,,,0.00,weatherlink.com 1.10,2013-03-05 21:23:00,
2013-03-05 14:38:00,73.1,24.0,29.87,East,87,1.0,10.0,16,0.00,,,0.00,weatherlink.com 1.10,2013-03-05 21:38:00,
2013-03-05 14:53:00,72.1,25.0,29.87,East,96,3.0,9.0,17,0.00,,,0.00,weatherlink.com 1.10,2013-03-05 21:53:00,
2013-03-05 15:08:00,72.5,27.0,29.86,SW,236,2.0,8.0,18,0.00,,,0.00,weatherlink.com 1.10,2013-03-05 22:08:00,
2013-03-05 15:23:00,72.9,24.0,29.86,West,275,6.0,12.0,16,0.00,,,0.00,weatherlink.com 1.10,2013-03-05 22:23:00,
2013-03-05 15:38:00,72.8,25.0,29.86,South,178,2.0,12.0,17,0.00,,,0.00,weatherlink.com 1.10,2013-03-05 22:38:00,
2013-03-05 15:53:00,72.5,24.0,29.86,ESE,123,2.0,12.0,16,0.00,,,0.00,weatherlink.com 1.10,2013-03-05 22:53:00,
2013-03-05 16:08:00,71.2,24.0,29.86,East,99,5.0,10.0,17,0.00,,,0.00,weatherlink.com 1.10,2013-03-05 23:08:00,
2013-03-05 16:23:00,70.8,28.0,29.86,South,186,4.0,10.0,20,0.00,,,0.00,weatherlink.com 1.10,2013-03-05 23:23:00,
2013-03-05 16:38:00,70.4,30.0,29.86,SSW,194,1.0,8.0,22,0.00,,,0.00,weatherlink.com 1.10,2013-03-05 23:38:00,
2013-03-05 16:53:00,69.9,30.0,29.86,SW,217,3.0,13.0,23,0.00,,,0.00,weatherlink.com 1.10,2013-03-05 23:53:00,
2013-03-05 17:08:00,69.2,30.0,29.86,SSW,210,2.0,9.0,23,0.00,,,0.00,weatherlink.com 1.10,2013-03-06 00:08:00,
2013-03-05 17:23:00,68.1,29.0,29.86,WSW,248,4.0,10.0,23,0.00,,,0.00,weatherlink.com 1.10,2013-03-06 00:23:00,
2013-03-05 17:38:00,67.0,29.0,29.86,West,259,2.0,8.0,24,0.00,,,0.00,weatherlink.com 1.10,2013-03-06 00:38:00,
2013-03-05 17:53:00,65.8,29.0,29.86,SW,220,2.0,7.0,25,0.00,,,0.00,weatherlink.com 1.10,2013-03-06 00:53:00,
2013-03-05 18:08:00,64.6,29.0,29.86,SW,218,3.0,7.0,26,0.00,,,0.00,weatherlink.com 1.10,2013-03-06 01:08:00,
2013-03-05 18:23:00,63.1,28.0,29.86,SSE,162,1.0,6.0,27,0.00,,,0.00,weatherlink.com 1.10,2013-03-06 01:23:00,
2013-03-05 18:39:00,61.4,29.0,29.86,South,175,0.0,3.0,29,0.00,,,0.00,weatherlink.com 1.10,2013-03-06 01:39:00,
2013-03-05 18:54:00,59.2,28.0,29.86,SSE,153,0.0,2.0,31,0.00,,,0.00,weatherlink.com 1.10,2013-03-06 01:54:00,
2013-03-05 19:09:00,57.1,29.0,29.86,SSE,153,1.0,2.0,34,0.00,,,0.00,weatherlink.com 1.10,2013-03-06 02:09:00,
2013-03-05 19:24:00,55.4,29.0,29.86,SSE,153,1.0,2.0,36,0.00,,,0.00,weatherlink.com 1.10,2013-03-06 02:24:00,
2013-03-05 19:39:00,54.0,29.0,29.86,SSE,153,0.0,2.0,38,0.00,,,0.00,weatherlink.com 1.10,2013-03-06 02:39:00,
2013-03-05 19:54:00,52.0,29.0,29.86,ESE,110,0.0,1.0,41,0.00,,,0.00,weatherlink.com 1.10,2013-03-06 02:54:00,
2013-03-05 20:09:00,50.6,29.0,29.86,ESE,110,0.0,0.0,44,0.00,,,0.00,weatherlink.com 1.10,2013-03-06 03:09:00,
2013-03-05 20:24:00,49.2,29.0,29.87,ESE,110,0.0,1.0,46,0.00,,,0.00,weatherlink.com 1.10,2013-03-06 03:24:00,
2013-03-05 20:39:00,48.3,29.0,29.87,ESE,110,0.0,1.0,47,0.00,,,0.00,weatherlink.com 1.10,2013-03-06 03:39:00,
2013-03-05 20:54:00,47.7,29.0,29.88,SE,128,0.0,0.0,48,0.00,,,0.00,weatherlink.com 1.10,2013-03-06 03:54:00,
2013-03-05 21:09:00,47.4,29.0,29.88,NNE,33,0.0,2.0,50,0.00,,,0.00,weatherlink.com 1.10,2013-03-06 04:09:00,
2013-03-05 21:24:00,46.5,30.0,29.88,WNW,290,0.0,2.0,52,0.00,,,0.00,weatherlink.com 1.10,2013-03-06 04:24:00,
2013-03-05 21:39:00,46.1,30.0,29.89,WNW,290,0.0,2.0,54,0.00,,,0.00,weatherlink.com 1.10,2013-03-06 04:39:00,
2013-03-05 21:54:00,45.3,30.0,29.89,WNW,290,0.0,1.0,56,0.00,,,0.00,weatherlink.com 1.10,2013-03-06 04:54:00,
2013-03-05 22:09:00,44.4,30.0,29.89,WNW,290,0.0,0.0,58,0.00,,,0.00,weatherlink.com 1.10,2013-03-06 05:09:00,
2013-03-05 22:24:00,43.8,31.0,29.89,WNW,290,0.0,2.0,60,0.00,,,0.00,weatherlink.com 1.10,2013-03-06 05:24:00,
2013-03-05 22:39:00,43.1,30.0,29.89,WNW,290,0.0,1.0,61,0.00,,,0.00,weatherlink.com 1.10,2013-03-06 05:39:00,
2013-03-05 22:54:00,42.1,30.0,29.89,WNW,290,0.0,0.0,63,0.00,,,0.00,weatherlink.com 1.10,2013-03-06 05:54:00,
2013-03-05 23:09:00,41.8,30.0,29.89,WNW,290,0.0,1.0,64,0.00,,,0.00,weatherlink.com 1.10,2013-03-06 06:09:00,
2013-03-05 23:24:00,41.3,30.0,29.89,WNW,290,0.0,0.0,65,0.00,,,0.00,weatherlink.com 1.10,2013-03-06 06:24:00,
2013-03-05 23:39:00,40.3,30.0,29.88,WNW,290,1.0,1.0,66,0.00,,,0.00,weatherlink.com 1.10,2013-03-06 06:39:00,
2013-03-05 23:54:00,39.7,30.0,29.88,WNW,290,1.0,2.0,68,0.00,,,0.00,weatherlink.com 1.10,2013-03-06 06:54:00,